createdAt,value
2023-02-17T00:00:39.145Z,8.50
2023-02-17T00:03:05.726Z,8.50
2023-02-17T00:05:32.408Z,8.50
2023-02-17T00:07:58.981Z,8.50
2023-02-17T00:10:25.540Z,8.50
2023-02-17T00:12:52.199Z,8.50
2023-02-17T00:15:19.159Z,8.40
2023-02-17T00:17:45.784Z,8.40
2023-02-17T00:20:12.618Z,8.40
2023-02-17T00:22:39.303Z,8.50
2023-02-17T00:25:06.635Z,8.50
2023-02-17T00:27:33.230Z,8.50
2023-02-17T00:30:02.497Z,8.50
2023-02-17T00:32:29.248Z,8.60
2023-02-17T00:34:58.283Z,8.50
2023-02-17T00:37:25.651Z,8.50
2023-02-17T00:39:52.284Z,8.50
2023-02-17T00:42:19.235Z,8.40
2023-02-17T00:44:45.930Z,8.40
2023-02-17T00:47:13.391Z,8.40
2023-02-17T00:49:40.851Z,8.40
2023-02-17T00:52:07.602Z,8.40
2023-02-17T00:54:34.211Z,8.30
2023-02-17T00:57:00.803Z,8.40
2023-02-17T00:59:27.489Z,8.40
2023-02-17T01:01:54.360Z,8.40
2023-02-17T01:04:21.361Z,8.40
2023-02-17T01:06:48.033Z,8.40
2023-02-17T01:09:14.986Z,8.40
2023-02-17T01:11:42.445Z,8.40
2023-02-17T01:14:12.692Z,8.50
2023-02-17T01:16:41.797Z,8.50
2023-02-17T01:19:11.659Z,8.50
2023-02-17T01:21:38.481Z,8.50
2023-02-17T01:24:07.179Z,8.60
2023-02-17T01:26:36.710Z,8.50
2023-02-17T01:29:05.193Z,8.50
2023-02-17T01:31:32.427Z,8.50
2023-02-17T01:34:02.671Z,8.50
2023-02-17T01:36:29.826Z,8.50
2023-02-17T01:38:56.794Z,8.50
2023-02-17T01:41:29.275Z,8.50
2023-02-17T01:44:22.921Z,8.50
2023-02-17T01:46:51.486Z,8.60
2023-02-17T01:49:33.240Z,8.60
2023-02-17T01:52:18.244Z,8.60
2023-02-17T01:54:50.260Z,8.60
2023-02-17T01:57:19.500Z,8.60
2023-02-17T01:59:46.578Z,8.60
2023-02-17T02:02:14.207Z,8.60
2023-02-17T02:04:46.416Z,8.60
2023-02-17T02:07:23.716Z,8.70
2023-02-17T02:09:56.141Z,8.70
2023-02-17T02:12:28.796Z,8.70
2023-02-17T02:15:00.166Z,8.70
2023-02-17T02:17:51.706Z,8.70
2023-02-17T02:20:30.216Z,8.70
2023-02-17T02:23:20.874Z,8.60
2023-02-17T02:26:25.250Z,8.60
2023-02-17T02:29:28.324Z,8.60
2023-02-17T02:32:23.931Z,8.60
2023-02-17T02:34:59.902Z,8.60
2023-02-17T02:37:41.412Z,8.60
2023-02-17T02:40:11.256Z,8.60
2023-02-17T02:42:39.252Z,8.60
2023-02-17T02:45:10.588Z,8.70
2023-02-17T02:47:47.943Z,8.70
2023-02-17T02:50:28.398Z,8.60
2023-02-17T02:53:39.264Z,8.60
2023-02-17T02:56:28.518Z,8.60
2023-02-17T02:59:29.207Z,8.60
2023-02-17T03:02:12.228Z,8.60
2023-02-17T03:04:47.688Z,8.70
2023-02-17T03:07:37.553Z,8.60
2023-02-17T03:10:05.709Z,8.60
2023-02-17T03:12:36.400Z,8.60
2023-02-17T03:15:28.670Z,8.60
2023-02-17T03:18:00.053Z,8.60
2023-02-17T03:20:30.606Z,8.60
2023-02-17T03:22:57.540Z,8.60
2023-02-17T03:25:24.465Z,8.70
2023-02-17T03:27:51.161Z,8.60
2023-02-17T03:30:18.048Z,8.60
2023-02-17T03:32:44.851Z,8.60
2023-02-17T03:35:11.489Z,8.60
2023-02-17T03:37:38.386Z,8.60
2023-02-17T03:40:07.331Z,8.60
2023-02-17T03:42:34.068Z,8.60
2023-02-17T03:45:00.648Z,8.70
2023-02-17T03:47:27.488Z,8.70
2023-02-17T03:49:54.097Z,8.70
2023-02-17T03:52:20.879Z,8.70
2023-02-17T03:54:47.570Z,8.70
2023-02-17T03:57:14.666Z,8.70
2023-02-17T03:59:41.243Z,8.70
2023-02-17T04:02:07.829Z,8.70
2023-02-17T04:04:36.090Z,8.70
2023-02-17T04:07:02.737Z,8.80
2023-02-17T04:09:29.336Z,8.80
2023-02-17T04:11:55.945Z,8.80
2023-02-17T04:14:22.584Z,8.80
2023-02-17T04:16:49.221Z,8.80
2023-02-17T04:19:15.870Z,8.80
2023-02-17T04:21:42.509Z,8.80
2023-02-17T04:24:09.184Z,8.80
2023-02-17T04:26:35.864Z,8.80
2023-02-17T04:29:04.836Z,8.80
2023-02-17T04:31:32.805Z,8.80
2023-02-17T04:33:59.480Z,8.80
2023-02-17T04:36:26.185Z,8.80
2023-02-17T04:38:52.885Z,8.80
2023-02-17T04:41:20.101Z,8.80
2023-02-17T04:43:46.714Z,8.80
2023-02-17T04:46:13.476Z,8.80
2023-02-17T04:48:40.359Z,8.80
2023-02-17T04:51:07.071Z,8.80
2023-02-17T04:53:33.733Z,8.80
2023-02-17T04:56:00.863Z,8.80
2023-02-17T04:58:27.526Z,8.80
2023-02-17T05:00:54.152Z,8.80
2023-02-17T05:03:20.899Z,8.80
2023-02-17T05:05:47.509Z,8.80
2023-02-17T05:08:14.390Z,8.80
2023-02-17T05:10:41.666Z,8.90
2023-02-17T05:13:08.306Z,8.90
2023-02-17T05:15:35.288Z,9.00
2023-02-17T05:18:02.251Z,9.00
2023-02-17T05:20:28.988Z,9.00
2023-02-17T05:22:55.573Z,9.00
2023-02-17T05:25:22.232Z,9.10
2023-02-17T05:27:49.042Z,9.10
2023-02-17T05:30:16.658Z,9.10
2023-02-17T05:32:43.432Z,9.20
2023-02-17T05:35:10.238Z,9.20
2023-02-17T05:37:36.895Z,9.20
2023-02-17T05:40:03.798Z,9.20
2023-02-17T05:42:30.380Z,9.20
2023-02-17T05:44:57.032Z,9.20
2023-02-17T05:47:23.936Z,9.30
2023-02-17T05:49:50.741Z,9.30
2023-02-17T05:52:18.187Z,9.30
2023-02-17T05:54:45.332Z,9.30
2023-02-17T05:57:11.903Z,9.30
2023-02-17T05:59:38.589Z,9.30
2023-02-17T06:02:05.269Z,9.40
2023-02-17T06:04:33.343Z,9.40
2023-02-17T06:07:00.241Z,9.40
2023-02-17T06:09:26.952Z,9.40
2023-02-17T06:11:53.678Z,9.40
2023-02-17T06:14:20.325Z,9.40
2023-02-17T06:16:47.149Z,9.40
2023-02-17T06:19:13.815Z,9.40
2023-02-17T06:21:41.002Z,9.40
2023-02-17T06:24:07.767Z,9.40
2023-02-17T06:26:34.836Z,9.40
2023-02-17T06:29:01.447Z,9.40
2023-02-17T06:31:28.235Z,9.40
2023-02-17T06:33:54.890Z,9.40
2023-02-17T06:36:21.524Z,9.40
2023-02-17T06:38:48.112Z,9.40
2023-02-17T06:41:14.777Z,9.40
2023-02-17T06:43:41.615Z,9.40
2023-02-17T06:46:08.608Z,9.50
2023-02-17T06:48:35.795Z,9.40
2023-02-17T06:51:02.430Z,9.50
2023-02-17T06:53:29.038Z,9.40
2023-02-17T06:55:55.944Z,9.50
2023-02-17T06:58:22.646Z,9.50
2023-02-17T07:00:49.320Z,9.50
2023-02-17T07:03:15.926Z,9.50
2023-02-17T07:05:42.525Z,9.60
2023-02-17T07:08:09.195Z,9.60
2023-02-17T07:10:37.872Z,9.60
2023-02-17T07:13:04.584Z,9.60
2023-02-17T07:15:31.329Z,9.60
2023-02-17T07:17:58.371Z,9.60
2023-02-17T07:20:24.971Z,9.60
2023-02-17T07:22:51.569Z,9.60
2023-02-17T07:25:18.209Z,9.60
2023-02-17T07:27:44.850Z,9.60
2023-02-17T07:30:12.088Z,9.60
2023-02-17T07:32:39.238Z,9.60
2023-02-17T07:35:06.140Z,9.60
2023-02-17T07:37:34.102Z,9.70
2023-02-17T07:40:00.731Z,9.70
2023-02-17T07:42:28.215Z,9.70
2023-02-17T07:44:54.836Z,9.70
2023-02-17T07:47:21.448Z,9.70
2023-02-17T07:49:48.035Z,9.70
2023-02-17T07:52:17.860Z,9.70
2023-02-17T07:54:44.799Z,9.70
2023-02-17T07:57:11.395Z,9.70
2023-02-17T07:59:38.005Z,9.80
2023-02-17T08:02:04.713Z,9.80
2023-02-17T08:04:32.776Z,9.70
2023-02-17T08:06:59.435Z,9.80
2023-02-17T08:09:44.751Z,9.80
2023-02-17T08:12:38.282Z,9.80
2023-02-17T08:15:07.491Z,9.90
2023-02-17T08:17:34.239Z,9.80
2023-02-17T08:20:07.933Z,9.80
2023-02-17T08:22:35.699Z,9.90
2023-02-17T08:25:02.424Z,9.90
2023-02-17T08:27:29.031Z,9.90
2023-02-17T08:29:55.980Z,9.90
2023-02-17T08:32:23.353Z,9.90
2023-02-17T08:34:50.175Z,9.90
2023-02-17T08:37:16.900Z,9.90
2023-02-17T08:39:43.865Z,9.90
2023-02-17T08:42:11.966Z,9.90
2023-02-17T08:44:38.937Z,9.90
2023-02-17T08:47:06.724Z,9.90
2023-02-17T08:49:33.673Z,9.90
2023-02-17T08:52:00.828Z,9.90
2023-02-17T08:54:28.283Z,9.90
2023-02-17T08:56:54.991Z,9.90
2023-02-17T08:59:21.912Z,9.90
2023-02-17T09:01:48.715Z,9.90
2023-02-17T09:04:18.590Z,10.00
2023-02-17T09:06:50.666Z,10.00
2023-02-17T09:09:22.670Z,10.00
2023-02-17T09:11:49.490Z,10.00
2023-02-17T09:14:16.250Z,10.10
2023-02-17T09:16:43.133Z,10.10
2023-02-17T09:19:09.877Z,10.10
2023-02-17T09:21:36.562Z,10.10
2023-02-17T09:24:03.539Z,10.20
2023-02-17T09:26:30.191Z,10.20
2023-02-17T09:28:57.783Z,10.30
2023-02-17T09:31:27.037Z,10.30
2023-02-17T09:33:54.957Z,10.30
2023-02-17T09:36:28.029Z,10.40
2023-02-17T09:38:55.748Z,10.30
2023-02-17T09:41:37.926Z,10.40
2023-02-17T09:44:07.424Z,10.30
2023-02-17T09:46:59.368Z,10.40
2023-02-17T09:49:32.468Z,10.40
2023-02-17T09:52:15.207Z,10.40
2023-02-17T09:54:59.477Z,10.40
2023-02-17T09:57:29.243Z,10.40
2023-02-17T10:00:02.360Z,10.40
2023-02-17T10:02:50.409Z,10.40
2023-02-17T10:05:21.605Z,10.40
2023-02-17T10:07:54.433Z,10.40
2023-02-17T10:10:27.911Z,10.50
2023-02-17T10:13:02.017Z,10.50
2023-02-17T10:15:35.384Z,10.50
2023-02-17T10:18:11.577Z,10.50
2023-02-17T10:20:49.814Z,10.50
2023-02-17T10:23:18.523Z,10.50
2023-02-17T10:26:05.946Z,10.50
2023-02-17T10:28:53.541Z,10.50
2023-02-17T10:31:56.570Z,10.50
2023-02-17T10:34:36.746Z,10.60
2023-02-17T10:37:24.905Z,10.60
2023-02-17T10:39:54.660Z,10.60
2023-02-17T10:42:30.803Z,10.60
2023-02-17T10:45:10.504Z,10.60
2023-02-17T10:47:39.776Z,10.70
2023-02-17T10:50:23.379Z,10.70
2023-02-17T10:52:50.989Z,10.70
2023-02-17T10:55:33.743Z,10.70
2023-02-17T10:58:13.055Z,10.70
2023-02-17T11:00:42.284Z,10.80
2023-02-17T11:03:20.433Z,10.80
2023-02-17T11:05:57.689Z,10.80
2023-02-17T11:08:31.555Z,10.90
2023-02-17T11:11:04.596Z,10.90
2023-02-17T11:13:40.049Z,10.90
2023-02-17T11:16:19.987Z,11.00
2023-02-17T11:18:49.561Z,11.00
2023-02-17T11:21:16.433Z,11.10
2023-02-17T11:23:56.332Z,11.10
2023-02-17T11:26:25.634Z,11.20
2023-02-17T11:28:52.362Z,11.20
2023-02-17T11:31:27.768Z,11.30
2023-02-17T11:33:56.978Z,11.40
2023-02-17T11:36:27.470Z,11.40
2023-02-17T11:38:54.534Z,11.50
2023-02-17T11:41:21.293Z,11.60
2023-02-17T11:43:58.545Z,11.60
2023-02-17T11:46:41.118Z,11.70
2023-02-17T11:49:36.960Z,11.90
2023-02-17T11:52:19.387Z,11.90
2023-02-17T11:55:12.925Z,11.90
2023-02-17T11:57:45.657Z,12.00
2023-02-17T12:00:15.069Z,12.20
2023-02-17T12:03:17.329Z,12.40
2023-02-17T12:06:11.353Z,12.50
2023-02-17T12:09:07.786Z,12.70
2023-02-17T12:11:55.640Z,12.80
2023-02-17T12:14:37.334Z,12.70
2023-02-17T12:17:35.383Z,12.70
2023-02-17T12:20:38.125Z,12.60
2023-02-17T12:23:29.638Z,12.70
2023-02-17T12:26:11.117Z,12.70
2023-02-17T12:28:52.883Z,12.80
2023-02-17T12:31:19.577Z,12.80
2023-02-17T12:34:01.414Z,12.80
2023-02-17T12:36:33.425Z,12.80
2023-02-17T12:39:18.165Z,12.80
2023-02-17T12:42:03.282Z,12.90
2023-02-17T12:44:34.232Z,12.80
2023-02-17T12:47:15.921Z,12.80
2023-02-17T12:49:48.988Z,12.70
2023-02-17T12:52:27.208Z,12.60
2023-02-17T12:55:19.852Z,12.70
2023-02-17T12:58:04.008Z,12.60
2023-02-17T13:00:38.370Z,12.60
2023-02-17T13:03:05.389Z,12.60
2023-02-17T13:06:01.208Z,12.60
2023-02-17T13:08:37.212Z,12.60
2023-02-17T13:11:08.230Z,12.50
2023-02-17T13:13:35.560Z,12.60
2023-02-17T13:16:14.178Z,12.50
2023-02-17T13:18:45.724Z,12.50
2023-02-17T13:21:32.937Z,12.50
2023-02-17T13:24:07.379Z,12.40
2023-02-17T13:26:52.421Z,12.40
2023-02-17T13:29:39.799Z,12.40
2023-02-17T13:32:33.237Z,12.30
2023-02-17T13:35:29.608Z,12.30
2023-02-17T13:37:56.304Z,12.30
2023-02-17T13:40:24.107Z,12.30
2023-02-17T13:42:55.843Z,12.20
2023-02-17T13:45:44.806Z,12.20
2023-02-17T13:48:15.642Z,12.20
2023-02-17T13:51:23.742Z,12.10
2023-02-17T13:53:50.883Z,12.10
2023-02-17T13:56:29.665Z,12.10
2023-02-17T13:59:18.143Z,12.10
2023-02-17T14:01:46.964Z,12.00
2023-02-17T14:04:27.191Z,12.00
2023-02-17T14:06:56.722Z,12.00
2023-02-17T14:09:27.763Z,12.00
2023-02-17T14:11:55.891Z,11.90
2023-02-17T14:14:27.675Z,11.90
2023-02-17T14:17:03.893Z,11.80
2023-02-17T14:19:45.323Z,11.80
2023-02-17T14:22:30.953Z,11.70
2023-02-17T14:25:06.872Z,11.60
2023-02-17T14:27:49.450Z,11.40
2023-02-17T14:30:39.311Z,11.20
2023-02-17T14:33:21.821Z,11.10
2023-02-17T14:36:00.605Z,10.90
2023-02-17T14:38:40.488Z,10.80
2023-02-17T14:41:11.435Z,10.70
2023-02-17T14:43:38.105Z,10.70
2023-02-17T14:46:05.448Z,10.60
2023-02-17T14:48:32.349Z,10.60
2023-02-17T14:50:59.069Z,10.60
2023-02-17T14:53:32.645Z,10.50
2023-02-17T14:56:21.893Z,10.50
2023-02-17T14:58:52.959Z,10.50
2023-02-17T15:01:21.538Z,10.50
2023-02-17T15:03:48.844Z,10.50
2023-02-17T15:06:32.488Z,10.40
2023-02-17T15:09:00.984Z,10.40
2023-02-17T15:11:30.417Z,10.40
2023-02-17T15:13:57.315Z,10.40
2023-02-17T15:16:24.035Z,10.40
2023-02-17T15:18:50.909Z,10.40
2023-02-17T15:21:27.723Z,10.40
2023-02-17T15:23:55.882Z,10.40
2023-02-17T15:26:23.260Z,10.40
2023-02-17T15:28:50.493Z,10.40
2023-02-17T15:31:20.592Z,10.40
2023-02-17T15:33:58.811Z,10.30
2023-02-17T15:36:26.969Z,10.30
2023-02-17T15:38:54.465Z,10.30
2023-02-17T15:41:24.449Z,10.30
2023-02-17T15:43:52.290Z,10.30
2023-02-17T15:46:20.949Z,10.20
2023-02-17T15:48:49.770Z,10.20
2023-02-17T15:51:19.365Z,10.20
2023-02-17T15:53:47.210Z,10.20
2023-02-17T15:56:21.438Z,10.20
2023-02-17T15:58:49.446Z,10.10
2023-02-17T16:01:31.835Z,10.10
2023-02-17T16:03:59.333Z,10.10
2023-02-17T16:06:27.382Z,10.10
2023-02-17T16:08:54.764Z,10.10
2023-02-17T16:11:23.052Z,10.10
2023-02-17T16:13:50.289Z,10.10
2023-02-17T16:16:35.920Z,10.10
2023-02-17T16:19:02.666Z,10.00
2023-02-17T16:21:29.336Z,10.10
2023-02-17T16:23:59.615Z,10.10
2023-02-17T16:26:34.387Z,10.10
2023-02-17T16:29:03.483Z,10.10
2023-02-17T16:31:33.477Z,10.10
2023-02-17T16:34:00.216Z,10.10
2023-02-17T16:36:31.351Z,10.10
2023-02-17T16:39:00.416Z,10.10
2023-02-17T16:41:27.054Z,10.10
2023-02-17T16:43:53.742Z,10.10
2023-02-17T16:46:29.556Z,10.10
2023-02-17T16:48:57.602Z,10.10
2023-02-17T16:51:24.545Z,10.10
2023-02-17T16:53:51.465Z,10.10
2023-02-17T16:56:25.901Z,10.10
2023-02-17T16:58:52.601Z,10.10
2023-02-17T17:01:19.288Z,10.10
2023-02-17T17:03:46.057Z,10.10
2023-02-17T17:06:19.462Z,10.10
2023-02-17T17:08:46.696Z,10.10
2023-02-17T17:11:15.956Z,10.10
2023-02-17T17:13:44.460Z,10.10
2023-02-17T17:16:35.593Z,10.10
2023-02-17T17:19:03.822Z,10.10
2023-02-17T17:21:30.911Z,10.10
2023-02-17T17:23:57.543Z,10.00
2023-02-17T17:26:41.229Z,10.10
2023-02-17T17:29:09.931Z,10.10
2023-02-17T17:31:36.782Z,10.10
2023-02-17T17:34:03.585Z,10.10
2023-02-17T17:36:37.528Z,10.10
2023-02-17T17:39:06.371Z,10.10
2023-02-17T17:41:33.713Z,10.10
2023-02-17T17:44:00.315Z,10.10
2023-02-17T17:46:30.483Z,10.10
2023-02-17T17:48:58.818Z,10.10
2023-02-17T17:51:27.662Z,10.10
2023-02-17T17:53:55.006Z,10.10
2023-02-17T17:56:27.573Z,10.10
2023-02-17T17:58:55.731Z,10.10
2023-02-17T18:01:23.043Z,10.10
2023-02-17T18:03:50.392Z,10.10
2023-02-17T18:06:40.538Z,10.10
2023-02-17T18:09:13.298Z,10.20
2023-02-17T18:11:44.409Z,10.10
2023-02-17T18:14:14.022Z,10.10
2023-02-17T18:16:44.282Z,10.10
2023-02-17T18:19:12.162Z,10.10
2023-02-17T18:21:39.745Z,10.10
2023-02-17T18:24:06.790Z,10.10
2023-02-17T18:26:33.829Z,10.10
2023-02-17T18:29:00.640Z,10.10
2023-02-17T18:31:29.486Z,10.00
2023-02-17T18:33:56.324Z,10.00
2023-02-17T18:36:26.207Z,10.00
2023-02-17T18:38:53.555Z,10.00
2023-02-17T18:41:31.431Z,10.00
2023-02-17T18:43:59.399Z,10.00
2023-02-17T18:46:27.179Z,10.00
2023-02-17T18:48:55.266Z,10.00
2023-02-17T18:51:23.376Z,9.90
2023-02-17T18:53:54.630Z,9.90
2023-02-17T18:56:24.750Z,9.90
2023-02-17T18:58:53.424Z,9.80
2023-02-17T19:01:26.181Z,9.80
2023-02-17T19:03:52.950Z,9.70
2023-02-17T19:06:22.357Z,9.70
2023-02-17T19:08:49.617Z,9.70
2023-02-17T19:11:18.376Z,9.70
2023-02-17T19:13:45.462Z,9.80
2023-02-17T19:16:15.722Z,9.80
2023-02-17T19:18:43.160Z,9.80
2023-02-17T19:21:10.363Z,9.80
2023-02-17T19:23:37.519Z,9.90
2023-02-17T19:26:06.876Z,9.90
2023-02-17T19:28:35.980Z,9.90
2023-02-17T19:31:06.322Z,9.90
2023-02-17T19:33:33.351Z,9.90
2023-02-17T19:35:59.987Z,9.80
2023-02-17T19:38:26.721Z,9.80
2023-02-17T19:40:53.423Z,9.70
2023-02-17T19:43:19.993Z,9.60
2023-02-17T19:45:46.702Z,9.70
2023-02-17T19:48:13.369Z,9.60
2023-02-17T19:50:40.080Z,9.60
2023-02-17T19:53:07.394Z,9.20
2023-02-17T19:55:34.362Z,8.70
2023-02-17T19:58:00.970Z,8.50
2023-02-17T20:00:27.665Z,8.30
2023-02-17T20:02:54.399Z,8.30
2023-02-17T20:05:21.108Z,8.10
2023-02-17T20:07:48.035Z,8.00
2023-02-17T20:10:14.772Z,7.90
2023-02-17T20:12:41.479Z,7.90
2023-02-17T20:15:08.787Z,7.80
2023-02-17T20:17:35.386Z,7.80
2023-02-17T20:20:02.068Z,7.70
2023-02-17T20:22:28.709Z,7.70
2023-02-17T20:24:55.403Z,7.70
2023-02-17T20:27:22.034Z,7.60
2023-02-17T20:29:48.947Z,7.60
2023-02-17T20:32:15.763Z,7.60
2023-02-17T20:34:42.504Z,7.60
2023-02-17T20:37:10.244Z,7.60
2023-02-17T20:39:38.559Z,7.70
2023-02-17T20:42:05.644Z,7.70
2023-02-17T20:44:32.390Z,7.70
2023-02-17T20:46:59.311Z,7.80
2023-02-17T20:49:26.486Z,7.80
2023-02-17T20:51:53.682Z,7.80
2023-02-17T20:54:20.347Z,7.90
2023-02-17T20:56:47.748Z,7.80
2023-02-17T20:59:14.532Z,7.80
2023-02-17T21:01:41.822Z,7.90
2023-02-17T21:04:09.020Z,7.80
2023-02-17T21:06:40.876Z,7.80
2023-02-17T21:09:14.556Z,7.70
2023-02-17T21:11:41.767Z,7.80
2023-02-17T21:14:08.640Z,7.80
2023-02-17T21:16:35.640Z,7.80
2023-02-17T21:19:02.951Z,7.80
2023-02-17T21:21:30.760Z,7.80
2023-02-17T21:23:58.251Z,7.80
2023-02-17T21:26:25.280Z,7.80
2023-02-17T21:28:52.058Z,7.80
2023-02-17T21:31:19.071Z,7.80
2023-02-17T21:33:46.020Z,7.80
2023-02-17T21:36:15.221Z,7.70
2023-02-17T21:38:42.294Z,7.70
2023-02-17T21:41:15.177Z,7.70
2023-02-17T21:44:00.846Z,7.70
2023-02-17T21:46:28.304Z,7.70
2023-02-17T21:48:55.952Z,7.70
2023-02-17T21:51:22.938Z,7.70
2023-02-17T21:53:49.940Z,7.70
2023-02-17T21:56:16.729Z,7.60
2023-02-17T21:58:48.624Z,7.60
2023-02-17T22:01:16.139Z,7.60
2023-02-17T22:03:42.986Z,7.60
2023-02-17T22:06:21.170Z,7.50
2023-02-17T22:08:48.069Z,7.50
2023-02-17T22:11:16.789Z,7.50
2023-02-17T22:13:43.552Z,7.50
2023-02-17T22:16:10.728Z,7.50
2023-02-17T22:18:37.648Z,7.50
2023-02-17T22:21:08.709Z,7.50
2023-02-17T22:23:35.471Z,7.50
2023-02-17T22:26:09.624Z,7.50
2023-02-17T22:28:36.643Z,7.50
2023-02-17T22:31:04.202Z,7.50
2023-02-17T22:33:30.948Z,7.50
2023-02-17T22:36:00.508Z,7.40
2023-02-17T22:38:27.261Z,7.50
2023-02-17T22:40:54.050Z,7.50
2023-02-17T22:43:20.776Z,7.50
2023-02-17T22:45:47.433Z,7.50
2023-02-17T22:48:14.067Z,7.50
2023-02-17T22:50:41.800Z,7.40
2023-02-17T22:53:08.669Z,7.40
2023-02-17T22:55:35.714Z,7.50
2023-02-17T22:58:02.337Z,7.40
2023-02-17T23:00:28.949Z,7.40
2023-02-17T23:02:55.625Z,7.40
2023-02-17T23:05:22.316Z,7.40
2023-02-17T23:07:52.501Z,7.40
2023-02-17T23:10:20.397Z,7.50
2023-02-17T23:12:47.136Z,7.50
2023-02-17T23:15:13.815Z,7.50
2023-02-17T23:17:58.612Z,7.50
2023-02-17T23:20:25.441Z,7.50
2023-02-17T23:22:52.089Z,7.50
2023-02-17T23:25:18.687Z,7.50
2023-02-17T23:27:45.330Z,7.60
2023-02-17T23:30:19.713Z,7.60
2023-02-17T23:32:46.376Z,7.60
2023-02-17T23:35:13.397Z,7.60
2023-02-17T23:37:40.255Z,7.60
2023-02-17T23:40:08.232Z,7.70
2023-02-17T23:42:34.855Z,7.70
2023-02-17T23:45:01.586Z,7.70
2023-02-17T23:47:28.380Z,7.80
2023-02-17T23:49:54.997Z,7.80
2023-02-17T23:52:21.773Z,7.80
2023-02-17T23:54:48.437Z,7.80
2023-02-17T23:57:15.332Z,7.90
2023-02-17T23:59:42.088Z,7.80
